Time;durP1;ratioP1;P1;durP2;ratioP2;P2;SDS_P1;SDS_P2;PMS_P1;PMS_P2;Temp;Humidity;BMP_temperature;BMP_pressure;BME280_temperature;BME280_humidity;BME280_pressure;Samples;Min_cycle;Max_cycle;Signal;HPM_P1;HPM_P2
2022/04/01 00:01:55;;;;;;;16.80;11.10;;;;;;;7.79;63.00;95379.31;4937170;28;20264;-77
2022/04/01 00:04:21;;;;;;;16.27;10.77;;;;;;;7.76;63.66;95376.50;4943208;28;20207;-77
2022/04/01 00:06:46;;;;;;;18.48;11.27;;;;;;;7.79;63.12;95368.97;4943017;28;20188;-77
2022/04/01 00:09:11;;;;;;;16.95;11.10;;;;;;;7.72;63.05;95376.28;4934811;28;20164;-77
2022/04/01 00:11:37;;;;;;;17.85;12.02;;;;;;;7.86;62.97;95376.44;4930881;28;20708;-77
2022/04/01 00:14:03;;;;;;;16.23;11.32;;;;;;;7.83;62.91;95374.38;4947665;28;20245;-77
2022/04/01 00:16:28;;;;;;;15.25;10.73;;;;;;;7.84;62.40;95381.13;4926355;28;20276;-77
2022/04/01 00:18:53;;;;;;;18.15;10.85;;;;;;;7.78;63.35;95377.81;4937486;28;20195;-77
2022/04/01 00:21:19;;;;;;;16.77;12.15;;;;;;;7.79;63.27;95383.75;4934425;28;20275;-77
2022/04/01 00:23:44;;;;;;;17.52;11.40;;;;;;;7.82;62.79;95383.22;4927337;28;20225;-77
2022/04/01 00:26:09;;;;;;;18.80;10.88;;;;;;;7.46;63.60;95378.25;4927053;28;20197;-77
2022/04/01 00:28:35;;;;;;;18.15;11.48;;;;;;;7.71;63.00;95379.94;4926920;28;20266;-77
2022/04/01 00:31:00;;;;;;;16.73;11.52;;;;;;;7.69;62.64;95380.19;4957826;28;20169;-77
2022/04/01 00:33:26;;;;;;;17.85;11.93;;;;;;;7.63;63.36;95376.09;4944519;28;20296;-77
2022/04/01 00:35:52;;;;;;;17.52;11.82;;;;;;;7.67;62.65;95373.72;4939968;28;20282;-77
2022/04/01 00:38:17;;;;;;;20.00;13.10;;;;;;;7.51;63.29;95370.47;4936899;28;20188;-77
2022/04/01 00:40:43;;;;;;;18.98;12.52;;;;;;;7.60;63.64;95375.84;4944650;28;20365;-77
2022/04/01 00:43:08;;;;;;;21.40;12.05;;;;;;;7.51;64.13;95370.47;4941544;28;20196;-77
2022/04/01 00:45:33;;;;;;;22.05;14.15;;;;;;;7.60;63.66;95373.25;4942085;28;20299;-77
2022/04/01 00:48:02;;;;;;;23.83;14.15;;;;;;;7.46;63.92;95375.69;4940211;28;20658;-77
2022/04/01 00:50:30;;;;;;;21.75;13.85;;;;;;;7.56;63.94;95377.44;4941976;28;20293;-77
2022/04/01 00:52:55;;;;;;;19.63;12.93;;;;;;;7.52;63.29;95374.59;4933731;28;20188;-77
2022/04/01 00:55:24;;;;;;;19.45;12.45;;;;;;;7.59;63.56;95382.84;4940181;28;20215;-77
2022/04/01 00:57:49;;;;;;;21.33;12.38;;;;;;;7.49;63.89;95377.75;4924174;28;20169;-77
2022/04/01 01:00:17;;;;;;;20.95;12.25;;;;;;;7.52;63.08;95384.19;4941149;28;20148;-77
2022/04/01 01:02:43;;;;;;;20.80;12.32;;;;;;;7.48;64.13;95373.59;4918125;28;20166;-77
2022/04/01 01:05:08;;;;;;;22.05;13.50;;;;;;;7.51;63.86;95378.22;4920647;28;20582;-77
2022/04/01 01:07:34;;;;;;;19.98;12.45;;;;;;;7.52;63.44;95368.66;4931007;28;20284;-77
2022/04/01 01:10:00;;;;;;;21.10;13.55;;;;;;;7.38;63.70;95368.47;4927429;28;20161;-77
2022/04/01 01:12:26;;;;;;;21.27;13.20;;;;;;;7.48;64.13;95366.59;4942946;28;20215;-77
2022/04/01 01:14:51;;;;;;;20.15;12.23;;;;;;;7.60;63.28;95366.25;4939311;28;20219;-77
2022/04/01 01:17:17;;;;;;;22.30;13.43;;;;;;;7.36;63.63;95360.19;4942272;28;20184;-77
2022/04/01 01:19:46;;;;;;;22.80;13.60;;;;;;;7.35;63.42;95366.41;4930142;28;20170;-77
2022/04/01 01:22:13;;;;;;;20.73;12.93;;;;;;;7.40;63.73;95366.38;4936249;28;20249;-77
2022/04/01 01:24:44;;;;;;;19.80;13.00;;;;;;;7.34;63.36;95362.28;4944463;28;20212;-77
2022/04/01 01:27:10;;;;;;;20.90;12.88;;;;;;;7.24;64.31;95363.13;4931174;28;20176;-77
2022/04/01 01:29:40;;;;;;;23.10;13.90;;;;;;;7.32;63.58;95360.72;4946896;28;20236;-77
2022/04/01 01:32:10;;;;;;;22.88;13.68;;;;;;;7.29;64.31;95361.25;4944140;28;20242;-77
2022/04/01 01:34:36;;;;;;;23.58;13.40;;;;;;;7.39;64.26;95359.66;4946187;28;20282;-77
2022/04/01 01:37:02;;;;;;;25.77;14.77;;;;;;;7.31;63.82;95359.16;4946253;28;20695;-77
2022/04/01 01:39:29;;;;;;;23.75;14.05;;;;;;;7.50;63.31;95358.56;4945870;28;20196;-77
2022/04/01 01:41:55;;;;;;;23.38;13.77;;;;;;;7.54;63.25;95356.19;4946049;28;20323;-77
2022/04/01 01:44:22;;;;;;;26.13;14.77;;;;;;;7.50;63.33;95358.56;4942121;28;20215;-77
2022/04/01 01:46:49;;;;;;;24.73;14.65;;;;;;;7.37;64.47;95351.38;4945397;28;20373;-77
2022/04/01 01:49:14;;;;;;;25.42;15.02;;;;;;;7.30;64.47;95356.88;4942842;28;20216;-77
2022/04/01 01:54:43;;;;;;;26.50;15.45;;;;;;;7.34;64.20;95357.13;4944797;28;20211;-77
2022/04/01 01:57:09;;;;;;;22.73;14.68;;;;;;;7.37;64.43;95367.69;4939643;28;20275;-76
2022/04/01 01:59:34;;;;;;;26.25;14.52;;;;;;;7.29;64.44;95356.09;4938884;28;20196;-77
2022/04/01 02:02:02;;;;;;;25.08;14.63;;;;;;;7.42;63.71;95353.94;4930868;28;20703;-77
2022/04/01 02:04:27;;;;;;;23.73;14.02;;;;;;;7.40;63.73;95351.63;4930798;28;20295;-77
2022/04/01 02:06:53;;;;;;;25.30;15.25;;;;;;;7.40;63.95;95356.81;4956853;28;20656;-77
2022/04/01 02:09:18;;;;;;;25.35;14.95;;;;;;;7.40;64.39;95358.63;4946101;28;20172;-77
2022/04/01 02:11:44;;;;;;;25.25;14.63;;;;;;;7.20;64.97;95360.28;4948674;28;20219;-77
2022/04/01 02:14:12;;;;;;;26.52;14.35;;;;;;;7.26;64.34;95355.84;4948555;28;20215;-77
2022/04/01 02:16:43;;;;;;;26.40;14.52;;;;;;;7.20;64.16;95359.53;4929646;28;20247;-77
2022/04/01 02:19:09;;;;;;;28.55;15.15;;;;;;;7.24;64.68;95363.88;4961592;28;20230;-77
2022/04/01 02:21:34;;;;;;;28.25;17.20;;;;;;;7.38;64.34;95352.94;4927372;28;20415;-77
2022/04/01 02:24:00;;;;;;;25.88;16.08;;;;;;;7.26;64.61;95355.84;4935909;28;20212;-77
2022/04/01 02:26:25;;;;;;;27.88;15.75;;;;;;;7.23;64.42;95357.16;4927792;28;20365;-77
2022/04/01 02:28:51;;;;;;;27.70;14.70;;;;;;;7.27;64.60;95357.41;4937552;28;20253;-77
2022/04/01 02:31:17;;;;;;;28.10;16.13;;;;;;;7.04;65.41;95351.03;4948081;28;20204;-77
2022/04/01 02:33:43;;;;;;;27.88;15.07;;;;;;;7.03;65.71;95357.28;4946479;28;20279;-77
2022/04/01 02:36:12;;;;;;;28.83;16.08;;;;;;;7.11;64.71;95359.28;4946913;28;20761;-77
2022/04/01 02:38:40;;;;;;;26.63;15.57;;;;;;;7.07;64.59;95359.03;4933519;28;20204;-76
2022/04/01 02:41:06;;;;;;;28.50;15.85;;;;;;;7.15;64.64;95355.13;4946688;28;20289;-76
2022/04/01 02:43:32;;;;;;;28.67;17.05;;;;;;;7.01;65.32;95357.53;4943526;28;20184;-77
2022/04/01 02:45:58;;;;;;;28.25;15.77;;;;;;;7.00;65.05;95357.78;4935156;28;20220;-78
2022/04/01 02:48:23;;;;;;;31.05;17.20;;;;;;;6.85;65.97;95359.41;4943276;28;20200;-77
2022/04/01 02:50:49;;;;;;;30.83;16.10;;;;;;;6.84;65.75;95365.63;4947587;28;20161;-77
2022/04/01 02:53:16;;;;;;;31.70;16.40;;;;;;;7.04;64.73;95362.19;4941673;28;20202;-77
2022/04/01 02:55:41;;;;;;;31.10;16.73;;;;;;;7.11;64.86;95365.25;4943435;28;20275;-77
2022/04/01 02:58:07;;;;;;;30.83;16.27;;;;;;;7.10;64.38;95368.09;4948446;28;20172;-77
2022/04/01 03:00:37;;;;;;;28.88;16.40;;;;;;;6.94;64.82;95360.41;4945711;28;20293;-77
2022/04/01 03:03:07;;;;;;;31.25;16.30;;;;;;;6.99;65.28;95369.19;4939984;28;20279;-77
2022/04/01 03:05:33;;;;;;;30.67;16.13;;;;;;;6.92;65.28;95369.47;4946399;28;20288;-78
2022/04/01 03:07:59;;;;;;;29.23;16.85;;;;;;;7.08;64.80;95359.84;4946421;28;20283;-77
2022/04/01 03:10:24;;;;;;;31.58;17.10;;;;;;;7.18;64.11;95370.13;4944525;28;20763;-77
2022/04/01 03:12:50;;;;;;;29.60;16.40;;;;;;;7.11;64.39;95365.25;4924486;28;20635;-77
2022/04/01 03:15:16;;;;;;;29.23;15.52;;;;;;;7.21;64.64;95364.41;4937065;28;20252;-77
2022/04/01 03:17:42;;;;;;;30.73;17.08;;;;;;;7.15;64.34;95370.66;4929944;28;20205;-77
2022/04/01 03:20:13;;;;;;;31.33;16.55;;;;;;;7.08;64.31;95365.00;4928629;28;20212;-77
2022/04/01 03:22:40;;;;;;;31.55;16.88;;;;;;;7.21;64.16;95374.00;4941648;28;20333;-77
2022/04/01 03:25:08;;;;;;;27.38;15.68;;;;;;;7.20;64.06;95373.22;4932781;28;20224;-76
2022/04/01 03:27:34;;;;;;;29.52;15.75;;;;;;;7.22;64.77;95378.91;4961822;28;20219;-77
2022/04/01 03:29:59;;;;;;;31.77;17.10;;;;;;;7.11;64.65;95369.63;4945225;28;20642;-77
2022/04/01 03:32:26;;;;;;;29.77;16.08;;;;;;;7.18;64.98;95364.16;4926813;28;20192;-77
2022/04/01 03:34:51;;;;;;;31.25;16.85;;;;;;;7.24;64.38;95370.88;4944823;28;20180;-77
2022/04/01 03:37:17;;;;;;;29.80;16.00;;;;;;;7.20;64.30;95373.22;4947569;28;20653;-77
2022/04/01 03:39:43;;;;;;;32.20;17.58;;;;;;;7.32;63.82;95371.09;4925850;28;20155;-77
2022/04/01 03:42:08;;;;;;;28.08;15.90;;;;;;;7.19;64.22;95371.66;4939950;28;20234;-77
2022/04/01 03:44:36;;;;;;;27.45;15.95;;;;;;;7.31;63.46;95373.94;4946461;28;20191;-77
2022/04/01 03:47:10;;;;;;;29.67;16.25;;;;;;;7.13;64.22;95377.94;4939260;28;20695;-77
2022/04/01 03:49:49;;;;;;;29.57;17.43;;;;;;;7.12;64.00;95371.97;4946983;28;20258;-77
2022/04/01 03:52:15;;;;;;;30.77;16.40;;;;;;;7.22;63.36;95371.16;4937210;28;20121;-77
2022/04/01 03:54:43;;;;;;;29.33;15.63;;;;;;;7.18;63.46;95367.56;4915677;28;20655;-78
2022/04/01 03:57:11;;;;;;;29.70;16.10;;;;;;;7.19;63.11;95369.09;4945763;28;20182;-77
2022/04/01 03:59:41;;;;;;;28.05;15.52;;;;;;;7.15;63.37;95373.25;4933477;28;20258;-77
2022/04/01 04:02:14;;;;;;;30.42;16.15;;;;;;;7.06;63.82;95373.03;4939117;28;20269;-77
2022/04/01 04:04:40;;;;;;;27.77;15.70;;;;;;;7.21;63.57;95372.16;4929024;28;20203;-77
2022/04/01 04:07:09;;;;;;;29.38;16.52;;;;;;;7.19;63.51;95379.44;4909982;28;20673;-77
2022/04/01 04:09:38;;;;;;;31.80;17.70;;;;;;;7.08;63.99;95376.13;4916028;28;20186;-77
2022/04/01 04:12:05;;;;;;;27.95;16.80;;;;;;;7.24;63.05;95379.41;4944819;28;20206;-77
2022/04/01 04:14:31;;;;;;;29.52;16.90;;;;;;;7.29;63.59;95384.56;4909599;28;20204;-77
2022/04/01 04:17:05;;;;;;;29.35;15.43;;;;;;;7.03;63.77;95381.31;4945121;28;20693;-77
2022/04/01 04:19:51;;;;;;;28.40;15.70;;;;;;;6.92;64.33;95383.19;4944303;28;20273;-77
2022/04/01 04:22:22;;;;;;;30.92;15.95;;;;;;;7.02;64.01;95390.13;4942363;28;20246;-77
2022/04/01 04:24:55;;;;;;;30.17;15.70;;;;;;;6.52;65.02;95386.66;4944459;28;20304;-78
2022/04/01 04:27:26;;;;;;;30.60;15.52;;;;;;;6.60;64.33;95387.94;4910781;28;20220;-77
2022/04/01 04:29:52;;;;;;;29.70;15.82;;;;;;;6.79;64.11;95388.91;4938405;28;20327;-77
2022/04/01 04:32:54;;;;;;;30.63;15.20;;;;;;;6.66;65.24;95389.47;4926700;28;20372;-77
2022/04/01 04:35:20;;;;;;;29.35;14.63;;;;;;;6.98;63.73;95388.34;4944191;28;20199;-77
2022/04/01 04:37:46;;;;;;;33.28;18.52;;;;;;;6.97;64.11;95404.91;4927007;28;20199;-77
2022/04/01 04:40:15;;;;;;;30.50;15.82;;;;;;;6.96;63.93;95400.75;4944416;28;20219;-77
2022/04/01 04:42:45;;;;;;;29.42;16.70;;;;;;;6.88;64.03;95402.09;4930858;28;20282;-77
2022/04/01 04:45:21;;;;;;;30.48;16.23;;;;;;;6.93;63.76;95408.00;4933931;28;20156;-77
2022/04/01 04:47:47;;;;;;;30.85;17.27;;;;;;;6.79;64.89;95409.63;4928045;28;20165;-77
2022/04/01 04:50:13;;;;;;;31.13;16.73;;;;;;;6.94;63.97;95408.81;4944495;28;20574;-76
2022/04/01 04:52:39;;;;;;;29.02;15.70;;;;;;;6.65;64.95;95416.34;4939499;28;20199;-76
2022/04/01 04:55:10;;;;;;;29.00;14.43;;;;;;;6.80;64.29;95418.91;4944461;28;20621;-77
2022/04/01 04:57:38;;;;;;;30.05;15.90;;;;;;;6.49;65.50;95426.72;4926976;28;20239;-77
2022/04/01 05:00:05;;;;;;;25.48;14.40;;;;;;;6.56;64.76;95423.88;4948953;28;20252;-77
2022/04/01 05:02:49;;;;;;;27.95;14.90;;;;;;;6.82;64.14;95429.78;4943389;28;20168;-77
2022/04/01 05:05:27;;;;;;;32.22;15.55;;;;;;;6.33;65.41;95432.97;4954207;28;20207;-77
2022/04/01 05:08:10;;;;;;;28.48;15.63;;;;;;;6.63;64.51;95426.19;4943547;28;20165;-77
2022/04/01 05:11:08;;;;;;;28.27;15.43;;;;;;;6.64;64.46;95438.09;4941748;28;20737;-76
2022/04/01 05:14:00;;;;;;;28.58;15.07;;;;;;;6.46;64.68;95444.56;4939731;28;20293;-77
2022/04/01 05:16:43;;;;;;;29.40;15.73;;;;;;;6.49;64.82;95441.47;4953860;28;20196;-77
2022/04/01 05:19:10;;;;;;;24.63;14.52;;;;;;;6.77;63.33;95449.69;4924959;28;20219;-77
2022/04/01 05:21:47;;;;;;;27.08;15.05;;;;;;;6.69;63.83;95451.03;4955843;28;20199;-77
2022/04/01 05:24:15;;;;;;;25.95;14.57;;;;;;;6.43;64.15;95453.63;4942903;28;20728;-77
2022/04/01 05:26:42;;;;;;;26.80;15.52;;;;;;;6.67;64.15;95459.03;4943528;28;20203;-77
2022/04/01 05:29:26;;;;;;;26.05;14.35;;;;;;;6.49;63.87;95460.34;4945887;28;20210;-76
2022/04/01 05:32:00;;;;;;;22.30;14.40;;;;;;;6.38;63.65;95458.81;4934048;28;20357;-76
2022/04/01 05:34:36;;;;;;;25.02;13.77;;;;;;;6.57;63.54;95462.41;4943117;28;20169;-76
2022/04/01 05:37:02;;;;;;;26.67;14.73;;;;;;;6.79;63.04;95463.16;4944432;28;20215;-77
2022/04/01 05:39:29;;;;;;;28.40;14.15;;;;;;;6.71;62.93;95469.63;4943619;28;20181;-77
2022/04/01 05:41:55;;;;;;;22.50;13.90;;;;;;;6.50;64.00;95469.66;4925678;28;20153;-76
2022/04/01 05:44:21;;;;;;;29.60;16.38;;;;;;;6.28;63.44;95475.09;4943566;28;20203;-77
2022/04/01 05:46:48;;;;;;;28.10;14.75;;;;;;;6.18;63.90;95470.69;4930918;28;20285;-76
2022/04/01 05:49:14;;;;;;;28.85;16.10;;;;;;;6.45;63.17;95468.91;4943731;28;20219;-76
2022/04/01 05:51:40;;;;;;;32.22;18.15;;;;;;;6.24;63.34;95481.81;4938595;28;20199;-76
2022/04/01 05:54:08;;;;;;;29.25;17.30;;;;;;;6.05;64.53;95481.56;4943364;28;20177;-77
2022/04/01 05:56:37;;;;;;;42.17;22.67;;;;;;;6.24;63.96;95476.66;4937726;28;20362;-77
2022/04/01 05:59:03;;;;;;;27.05;16.30;;;;;;;6.03;64.43;95485.41;4943718;28;20188;-76
2022/04/01 06:01:49;;;;;;;24.80;14.45;;;;;;;6.03;62.85;95496.50;4922821;28;20286;-77
2022/04/01 06:04:34;;;;;;;26.33;15.75;;;;;;;6.07;63.96;95492.41;4935964;28;20162;-76
2022/04/01 06:07:26;;;;;;;24.38;14.57;;;;;;;5.98;64.29;95494.72;4959191;28;20250;-78
2022/04/01 06:10:11;;;;;;;25.00;14.93;;;;;;;6.23;63.03;95495.75;4912743;28;20301;-77
2022/04/01 06:12:58;;;;;;;23.52;13.73;;;;;;;6.21;63.12;95486.72;4960108;28;20706;-77
2022/04/01 06:15:33;;;;;;;25.05;14.00;;;;;;;6.15;63.09;95493.69;4962907;28;20159;-76
2022/04/01 06:17:58;;;;;;;;;;;;;;;5.80;63.55;95497.75;4946390;28;20856;-77
2022/04/01 06:20:26;;;;;;;22.98;14.68;;;;;;;6.11;63.36;95501.19;4962574;28;20187;-76
2022/04/01 06:23:14;;;;;;;23.65;13.73;;;;;;;6.12;63.50;95507.13;4926096;28;20290;-77
2022/04/01 06:25:44;;;;;;;24.55;14.35;;;;;;;6.09;62.47;95502.47;4945785;28;20270;-77
2022/04/01 06:28:24;;;;;;;25.92;15.98;;;;;;;6.30;62.44;95511.78;4946675;28;20708;-76
2022/04/01 06:30:50;;;;;;;21.63;13.13;;;;;;;6.30;61.78;95511.78;4936082;28;20270;-76
2022/04/01 06:33:49;;;;;;;23.38;13.85;;;;;;;6.15;63.00;95515.16;4930053;28;20200;-77
2022/04/01 06:36:18;;;;;;;23.50;12.35;;;;;;;6.20;61.90;95519.53;4936865;28;20155;-77
2022/04/01 06:38:53;;;;;;;22.52;12.73;;;;;;;6.06;62.71;95527.00;4946712;28;20183;-77
2022/04/01 06:41:20;;;;;;;20.58;12.80;;;;;;;6.25;61.64;95523.94;4946459;28;20161;-77
2022/04/01 06:43:47;;;;;;;21.33;12.80;;;;;;;6.17;62.41;95535.56;4945879;28;20215;-77
2022/04/01 06:46:12;;;;;;;25.08;12.93;;;;;;;6.16;62.32;95532.19;4962948;28;20207;-75
2022/04/01 06:48:38;;;;;;;20.92;12.85;;;;;;;6.26;61.44;95533.25;4945949;28;20209;-76
2022/04/01 06:51:03;;;;;;;20.00;11.55;;;;;;;6.32;61.56;95529.63;4940473;28;20168;-76
2022/04/01 06:53:29;;;;;;;18.70;11.05;;;;;;;6.46;60.82;95532.47;4942399;28;20203;-78
2022/04/01 06:55:54;;;;;;;18.75;11.50;;;;;;;6.58;60.26;95545.94;4948609;28;20186;-78
2022/04/01 06:58:21;;;;;;;18.00;10.20;;;;;;;6.29;61.13;95546.44;4933654;28;20222;-76
2022/04/01 07:00:46;;;;;;;18.80;10.95;;;;;;;6.14;61.40;95546.41;4960085;28;20782;-78
2022/04/01 07:03:12;;;;;;;15.73;10.55;;;;;;;6.09;61.48;95547.16;4947882;28;20355;-78
2022/04/01 07:05:38;;;;;;;18.08;10.90;;;;;;;6.10;62.22;95548.72;4932580;28;20269;-78
2022/04/01 07:08:04;;;;;;;18.35;11.82;;;;;;;6.19;61.36;95542.03;4949563;28;20032;-79
2022/04/01 07:10:30;;;;;;;16.27;9.93;;;;;;;6.05;61.60;95545.34;4965386;28;20049;-79
2022/04/01 07:12:56;;;;;;;15.75;9.95;;;;;;;5.92;61.28;95549.94;4952914;28;20065;-79
2022/04/01 07:15:21;;;;;;;16.25;9.73;;;;;;;6.06;61.49;95552.84;4948692;28;20296;-78
2022/04/01 07:17:47;;;;;;;16.20;10.20;;;;;;;6.13;61.14;95550.03;4946433;28;20270;-79
2022/04/01 07:20:13;;;;;;;20.30;11.63;;;;;;;5.99;61.79;95553.09;4932577;28;20299;-78
2022/04/01 07:22:40;;;;;;;17.52;10.45;;;;;;;6.00;61.88;95544.31;4947189;28;20329;-78
2022/04/01 07:25:10;;;;;;;17.98;11.05;;;;;;;6.14;61.71;95549.00;4945177;28;20637;-78
2022/04/01 07:27:35;;;;;;;15.82;10.27;;;;;;;5.75;62.17;95549.38;4946118;28;20718;-78
2022/04/01 07:30:01;;;;;;;17.67;10.68;;;;;;;5.86;61.67;95552.75;4947442;28;20256;-78
2022/04/01 07:32:32;;;;;;;16.60;10.40;;;;;;;6.00;60.48;95546.13;4932853;28;20701;-77
2022/04/01 07:34:58;;;;;;;17.58;10.13;;;;;;;6.16;61.77;95559.84;4949127;28;20204;-78
2022/04/01 07:37:25;;;;;;;18.13;10.70;;;;;;;6.19;61.44;95557.53;4927038;28;20252;-78
2022/04/01 07:39:57;;;;;;;17.83;10.32;;;;;;;6.02;61.54;95556.22;4948570;28;20190;-78
2022/04/01 07:42:23;;;;;;;17.33;10.88;;;;;;;6.20;61.26;95563.47;4932190;28;20262;-78
2022/04/01 07:44:49;;;;;;;15.23;9.40;;;;;;;6.18;61.02;95565.53;4946103;28;20250;-78
2022/04/01 07:47:15;;;;;;;13.85;9.30;;;;;;;5.97;61.45;95564.72;4931701;28;20203;-78
2022/04/01 07:49:41;;;;;;;14.45;9.27;;;;;;;5.50;62.48;95562.94;4946652;28;20273;-79
2022/04/01 07:52:08;;;;;;;15.13;9.60;;;;;;;5.34;62.90;95578.34;4937217;28;20236;-79
2022/04/01 07:54:34;;;;;;;13.65;8.48;;;;;;;5.49;63.33;95571.75;4946017;28;20238;-78
2022/04/01 07:57:00;;;;;;;12.68;8.80;;;;;;;5.80;61.93;95570.81;4931358;28;20273;-78
2022/04/01 07:59:26;;;;;;;15.40;9.25;;;;;;;6.07;61.08;95576.91;4933333;28;20110;-78
2022/04/01 08:01:51;;;;;;;14.50;9.32;;;;;;;5.89;61.42;95578.09;4940442;28;20216;-78
2022/04/01 08:04:17;;;;;;;14.77;9.32;;;;;;;5.54;61.99;95571.75;4944879;28;20258;-80
2022/04/01 08:06:42;;;;;;;13.40;9.25;;;;;;;5.63;62.29;95575.41;4929653;28;20606;-78
2022/04/01 08:09:08;;;;;;;13.10;9.23;;;;;;;5.86;61.59;95586.34;4944215;28;20168;-75
2022/04/01 08:11:33;;;;;;;15.00;9.48;;;;;;;4.81;65.20;95587.81;4944522;28;20199;-77
2022/04/01 08:13:58;;;;;;;15.70;10.55;;;;;;;5.46;63.74;95582.56;4940250;28;20278;-78
2022/04/01 08:16:24;;;;;;;15.32;9.10;;;;;;;5.75;62.79;95581.13;4964746;28;20730;-77
2022/04/01 08:18:50;;;;;;;15.95;9.48;;;;;;;6.02;61.85;95585.41;4942208;28;20264;-75
2022/04/01 08:21:15;;;;;;;14.68;9.15;;;;;;;5.88;61.69;95592.03;4940668;28;20657;-75
2022/04/01 08:23:41;;;;;;;17.05;11.00;;;;;;;5.53;63.58;95583.09;4926643;28;20261;-76
2022/04/01 08:26:07;;;;;;;16.77;10.68;;;;;;;5.54;63.24;95592.41;4940185;28;20743;-76
2022/04/01 08:28:34;;;;;;;16.42;9.93;;;;;;;5.82;62.10;95581.66;4943339;28;20270;-75
2022/04/01 08:31:00;;;;;;;14.77;9.48;;;;;;;5.77;62.52;95591.97;4926762;28;20195;-75
2022/04/01 08:33:26;;;;;;;13.85;9.05;;;;;;;6.20;61.27;95589.31;4909421;28;20572;-75
2022/04/01 08:35:51;;;;;;;12.98;8.32;;;;;;;6.49;60.61;95586.25;4942721;28;20212;-75
2022/04/01 08:38:16;;;;;;;13.25;8.80;;;;;;;6.36;59.89;95593.50;4943850;28;20180;-78
2022/04/01 08:40:42;;;;;;;12.50;7.88;;;;;;;5.94;61.01;95601.34;4944919;28;20610;-77
2022/04/01 08:43:07;;;;;;;12.35;8.15;;;;;;;6.01;61.40;95607.09;4931137;28;20204;-78
2022/04/01 08:45:35;;;;;;;12.90;8.02;;;;;;;6.03;60.42;95609.41;4946412;28;20203;-78
2022/04/01 08:48:02;;;;;;;11.23;7.90;;;;;;;6.35;59.83;95601.50;4926815;28;20315;-75
2022/04/01 08:50:28;;;;;;;12.85;8.07;;;;;;;6.31;60.30;95606.41;4931791;28;20275;-75
2022/04/01 08:52:53;;;;;;;12.15;8.13;;;;;;;6.39;60.05;95605.09;4938560;28;20273;-76
2022/04/01 08:55:19;;;;;;;9.48;7.18;;;;;;;6.59;59.52;95606.19;4943105;28;20255;-75
2022/04/01 08:57:45;;;;;;;11.32;7.57;;;;;;;6.62;59.20;95616.78;4943608;28;20184;-76
2022/04/01 09:00:13;;;;;;;12.77;8.18;;;;;;;6.53;59.64;95616.53;4935111;28;20642;-75
2022/04/01 09:02:39;;;;;;;12.65;8.45;;;;;;;6.10;60.66;95626.25;4944867;28;20278;-77
2022/04/01 09:05:06;;;;;;;11.50;8.05;;;;;;;6.44;60.06;95617.28;4943104;28;20245;-75
2022/04/01 09:07:32;;;;;;;11.90;8.50;;;;;;;5.99;60.58;95617.66;4924691;28;20376;-79
2022/04/01 09:10:02;;;;;;;11.07;8.18;;;;;;;6.08;60.70;95627.53;4929501;28;20617;-79
2022/04/01 09:12:29;;;;;;;11.85;7.22;;;;;;;6.45;59.83;95624.78;4928341;28;20102;-78
2022/04/01 09:14:55;;;;;;;10.45;7.45;;;;;;;7.03;58.88;95621.22;4962768;28;20202;-77
2022/04/01 09:17:22;;;;;;;11.43;8.00;;;;;;;7.07;57.84;95628.19;4946801;28;20521;-78
2022/04/01 09:20:09;;;;;;;9.98;7.43;;;;;;;6.34;60.02;95638.69;4935449;28;20278;-78
2022/04/01 09:22:35;;;;;;;11.18;8.35;;;;;;;5.84;60.82;95640.06;4938624;28;20177;-78
2022/04/01 09:25:06;;;;;;;10.43;7.60;;;;;;;6.22;59.27;95638.16;4942986;28;20071;-78
2022/04/01 09:27:48;;;;;;;12.50;7.88;;;;;;;6.05;59.98;95639.16;4945947;28;20240;-79
2022/04/01 09:30:17;;;;;;;9.73;6.90;;;;;;;6.02;58.90;95646.63;4944629;28;20195;-80
2022/04/01 09:32:46;;;;;;;9.57;7.00;;;;;;;6.08;59.17;95646.38;4929069;28;20203;-79
2022/04/01 09:35:12;;;;;;;11.07;7.38;;;;;;;5.72;59.51;95643.59;4937052;28;20318;-78
2022/04/01 09:37:47;;;;;;;11.90;8.35;;;;;;;6.19;59.59;95650.56;4936670;28;20278;-78
2022/04/01 09:40:20;;;;;;;10.75;6.97;;;;;;;6.44;57.95;95643.13;4936952;28;20781;-77
2022/04/01 09:42:56;;;;;;;9.30;6.82;;;;;;;6.40;57.71;95655.78;4927050;28;20339;-78
2022/04/01 09:45:24;;;;;;;9.20;7.10;;;;;;;6.27;57.81;95664.03;4964534;28;20579;-79
2022/04/01 09:48:04;;;;;;;10.63;7.32;;;;;;;6.81;57.91;95653.28;4940671;28;20618;-77
2022/04/01 09:50:37;;;;;;;11.80;7.55;;;;;;;6.00;58.80;95667.56;4943587;28;20165;-78
2022/04/01 09:53:06;;;;;;;8.60;6.93;;;;;;;5.86;59.42;95677.53;4929035;28;20804;-78
2022/04/01 09:55:40;;;;;;;11.48;6.90;;;;;;;5.70;60.61;95671.50;4965041;28;20278;-78
2022/04/01 09:58:06;;;;;;;10.70;6.97;;;;;;;6.23;59.16;95670.72;4949691;28;20226;-79
2022/04/01 10:00:33;;;;;;;9.27;7.20;;;;;;;6.07;58.97;95677.66;4950684;28;20383;-78
2022/04/01 10:02:59;;;;;;;9.85;6.95;;;;;;;5.47;59.65;95674.44;4948202;28;20286;-80
2022/04/01 10:05:25;;;;;;;12.63;7.13;;;;;;;5.25;60.33;95678.69;4945913;28;20199;-77
2022/04/01 10:07:52;;;;;;;11.55;7.60;;;;;;;5.60;60.14;95679.19;4929441;28;20485;-79
2022/04/01 10:10:18;;;;;;;10.82;7.72;;;;;;;6.18;58.66;95676.66;4943724;28;20208;-77
2022/04/01 10:12:45;;;;;;;10.75;7.95;;;;;;;6.04;58.70;95678.16;4948675;28;20199;-77
2022/04/01 10:15:11;;;;;;;12.23;7.68;;;;;;;5.36;60.23;95683.94;4949141;28;20360;-78
2022/04/01 10:17:39;;;;;;;13.45;8.45;;;;;;;5.60;59.34;95685.13;4930662;28;20254;-78
2022/04/01 10:20:05;;;;;;;10.07;7.78;;;;;;;5.53;60.21;95684.56;4922574;28;20275;-78
2022/04/01 10:22:30;;;;;;;12.48;8.68;;;;;;;5.17;60.29;95691.28;4946982;28;20286;-79
2022/04/01 10:25:15;;;;;;;11.45;7.75;;;;;;;5.28;60.54;95686.97;4947493;28;20189;-77
2022/04/01 10:27:44;;;;;;;12.20;7.87;;;;;;;5.46;59.48;95694.31;4951737;28;20327;-78
2022/04/01 10:30:11;;;;;;;13.45;7.22;;;;;;;5.51;58.30;95703.91;4935830;28;20220;-78
2022/04/01 10:32:42;;;;;;;13.88;8.38;;;;;;;5.13;60.34;95700.53;4942661;28;20180;-78
2022/04/01 10:35:28;;;;;;;11.60;7.47;;;;;;;4.84;60.78;95716.28;4933830;28;20109;-79
2022/04/01 10:38:16;;;;;;;13.02;7.88;;;;;;;5.04;60.16;95700.22;4947146;28;20708;-78
2022/04/01 10:40:44;;;;;;;11.30;7.28;;;;;;;5.32;59.63;95701.72;4950265;28;20190;-78
2022/04/01 10:43:15;;;;;;;11.60;7.78;;;;;;;4.97;59.99;95708.16;4945860;28;20354;-79
2022/04/01 10:45:56;;;;;;;11.43;7.93;;;;;;;4.94;60.72;95711.19;4950908;28;20190;-78
2022/04/01 10:51:36;;;;;;;11.30;7.20;;;;;;;5.00;60.24;95720.56;4942693;28;20234;-78
2022/04/01 10:54:14;;;;;;;;;;;;;;;4.46;62.14;95723.09;4941207;28;20168;-78
2022/04/01 10:56:54;;;;;;;10.70;7.15;;;;;;;4.56;61.33;95718.06;4966099;28;20088;-78
2022/04/01 10:59:25;;;;;;;10.35;7.30;;;;;;;5.19;60.19;95715.03;4947163;28;20652;-78
2022/04/01 11:01:53;;;;;;;11.50;7.32;;;;;;;5.26;59.86;95725.94;4957967;28;20274;-79
2022/04/01 11:04:19;;;;;;;10.90;7.32;;;;;;;5.51;59.14;95730.50;4947055;28;20169;-79
2022/04/01 11:07:24;;;;;;;11.65;8.23;;;;;;;5.38;58.94;95728.31;4965008;28;20191;-79
2022/04/01 11:09:51;;;;;;;11.95;7.70;;;;;;;5.16;59.89;95728.44;4930942;28;20218;-79
2022/04/01 11:12:21;;;;;;;11.52;7.85;;;;;;;5.19;59.89;95735.66;4964420;28;20662;-78
2022/04/01 11:15:19;;;;;;;10.43;7.28;;;;;;;5.42;58.35;95740.50;4962783;28;20669;-78
2022/04/01 11:17:44;;;;;;;10.57;7.45;;;;;;;5.37;59.34;95740.47;4949634;28;20191;-79
2022/04/01 11:20:19;;;;;;;13.73;9.43;;;;;;;5.20;59.07;95748.31;4964321;28;20365;-79
2022/04/01 11:22:54;;;;;;;;;;;;;;;4.79;59.67;95752.31;4942354;28;20700;-78
2022/04/01 11:25:22;;;;;;;14.38;8.13;;;;;;;4.97;59.20;95752.00;4942916;28;20191;-79
2022/04/01 11:27:50;;;;;;;10.70;7.10;;;;;;;4.81;59.99;95755.44;4963743;28;20203;-79
2022/04/01 11:30:17;;;;;;;15.95;9.75;;;;;;;4.97;59.70;95757.16;4929197;28;20200;-78
2022/04/01 11:32:45;;;;;;;14.60;8.85;;;;;;;5.09;59.74;95751.03;4959002;28;20604;-78
2022/04/01 11:35:13;;;;;;;11.30;7.75;;;;;;;4.83;59.64;95751.59;4933360;28;20172;-79
2022/04/01 11:37:43;;;;;;;10.07;6.90;;;;;;;5.21;58.72;95754.28;4934850;28;20209;-79
2022/04/01 11:40:16;;;;;;;10.60;7.13;;;;;;;4.97;59.50;95752.00;4943046;28;20348;-77
2022/04/01 11:42:52;;;;;;;10.50;6.50;;;;;;;4.88;59.45;95758.59;4942867;28;20230;-78
2022/04/01 11:45:19;;;;;;;9.85;6.78;;;;;;;5.20;59.01;95755.28;4938858;28;20211;-78